createdAt,value
2023-09-13T00:00:02.232Z,0
2023-09-13T00:01:16.226Z,0
2023-09-13T00:02:30.886Z,0
2023-09-13T00:05:00.358Z,0
2023-09-13T00:06:15.039Z,0
2023-09-13T00:07:29.695Z,0
2023-09-13T00:08:44.371Z,0
2023-09-13T00:11:13.711Z,0
2023-09-13T00:12:28.386Z,0
2023-09-13T00:13:43.073Z,0
2023-09-13T00:18:41.753Z,0
2023-09-13T00:19:56.431Z,0
2023-09-13T00:22:25.776Z,0
2023-09-13T00:24:55.116Z,0
2023-09-13T00:27:24.479Z,0
2023-09-13T00:28:38.418Z,0
2023-09-13T00:29:53.081Z,0
2023-09-13T00:31:07.757Z,0
2023-09-13T00:32:22.422Z,0
2023-09-13T00:33:37.117Z,0
2023-09-13T00:34:51.779Z,0
2023-09-13T00:36:06.452Z,0
2023-09-13T00:37:21.129Z,0
2023-09-13T00:38:35.795Z,0
2023-09-13T00:39:50.480Z,0
2023-09-13T00:41:05.142Z,0
2023-09-13T00:42:19.813Z,0
2023-09-13T00:44:49.168Z,0
2023-09-13T00:46:03.835Z,0
2023-09-13T00:48:33.309Z,0
2023-09-13T00:49:47.967Z,0
2023-09-13T00:51:02.650Z,0
2023-09-13T00:52:17.316Z,0
2023-09-13T00:53:31.985Z,0
2023-09-13T00:54:46.663Z,0
2023-09-13T00:57:15.987Z,0
2023-09-13T00:58:30.668Z,0
2023-09-13T00:59:45.356Z,0
2023-09-13T01:01:00.027Z,0
2023-09-13T01:03:29.377Z,0
2023-09-13T01:05:58.853Z,0
2023-09-13T01:07:13.516Z,0
2023-09-13T01:08:28.189Z,0
2023-09-13T01:09:42.875Z,0
2023-09-13T01:12:12.222Z,0
2023-09-13T01:15:56.233Z,0
2023-09-13T01:17:10.914Z,0
2023-09-13T01:19:40.248Z,0
2023-09-13T01:20:54.936Z,0
2023-09-13T01:22:09.598Z,0
2023-09-13T01:23:24.284Z,0
2023-09-13T01:24:38.936Z,0
2023-09-13T01:25:53.617Z,0
2023-09-13T01:27:08.296Z,0
2023-09-13T01:29:37.764Z,0
2023-09-13T01:32:07.102Z,0
2023-09-13T01:35:51.129Z,0
2023-09-13T01:37:05.787Z,0
2023-09-13T01:38:20.472Z,0
2023-09-13T01:40:49.810Z,0
2023-09-13T01:42:04.461Z,0
2023-09-13T01:43:19.168Z,0
2023-09-13T01:44:33.100Z,0
2023-09-13T01:45:47.774Z,0
2023-09-13T01:47:02.457Z,0
2023-09-13T01:49:31.805Z,0
2023-09-13T01:50:46.473Z,0
2023-09-13T01:52:01.152Z,0
2023-09-13T01:54:30.500Z,0
2023-09-13T01:55:45.158Z,0
2023-09-13T01:56:59.843Z,0
2023-09-13T01:58:14.511Z,0
2023-09-13T01:59:29.191Z,0
2023-09-13T02:00:43.854Z,0
2023-09-13T02:04:27.157Z,0
2023-09-13T02:06:56.499Z,0
2023-09-13T02:08:11.173Z,0
2023-09-13T02:09:25.848Z,0
2023-09-13T02:11:55.184Z,0
2023-09-13T02:13:09.857Z,0
2023-09-13T02:15:39.202Z,0
2023-09-13T02:16:53.884Z,0
2023-09-13T02:18:07.826Z,0
2023-09-13T02:19:22.493Z,0
2023-09-13T02:20:37.165Z,0
2023-09-13T02:21:51.836Z,0
2023-09-13T02:23:06.504Z,0
2023-09-13T02:24:21.197Z,0
2023-09-13T02:25:35.864Z,0
2023-09-13T02:26:50.538Z,0
2023-09-13T02:28:05.000Z,0
2023-09-13T02:30:34.532Z,0
2023-09-13T02:33:03.895Z,0
2023-09-13T02:34:17.848Z,0
2023-09-13T02:35:32.530Z,0
2023-09-13T02:38:01.851Z,0
2023-09-13T02:39:16.530Z,0
2023-09-13T02:41:45.894Z,0
2023-09-13T02:43:00.552Z,0
2023-09-13T02:44:15.219Z,0
2023-09-13T02:46:44.568Z,0
2023-09-13T02:47:59.253Z,0
2023-09-13T02:49:13.914Z,0
2023-09-13T02:50:28.689Z,0
2023-09-13T02:51:43.383Z,0
2023-09-13T02:52:58.052Z,0
2023-09-13T02:55:27.398Z,0
2023-09-13T02:56:42.088Z,0
2023-09-13T02:57:56.747Z,0
2023-09-13T02:59:11.428Z,0
2023-09-13T03:01:40.766Z,0
2023-09-13T03:02:55.446Z,0
2023-09-13T03:05:24.788Z,0
2023-09-13T03:07:54.150Z,0
2023-09-13T03:10:22.763Z,0
2023-09-13T03:14:06.749Z,0
2023-09-13T03:16:36.133Z,0
2023-09-13T03:17:50.794Z,0
2023-09-13T03:19:05.479Z,0
2023-09-13T03:21:34.822Z,0
2023-09-13T03:22:49.494Z,0
2023-09-13T03:24:04.168Z,0
2023-09-13T03:25:18.963Z,0
2023-09-13T03:26:33.640Z,0
2023-09-13T03:27:48.304Z,0
2023-09-13T03:30:17.647Z,0
2023-09-13T03:31:32.321Z,0
2023-09-13T03:34:01.676Z,0
2023-09-13T03:35:16.342Z,0
2023-09-13T03:36:31.011Z,0
2023-09-13T03:37:45.685Z,0
2023-09-13T03:39:00.361Z,0
2023-09-13T03:40:15.035Z,0
2023-09-13T03:41:29.836Z,0
2023-09-13T03:42:44.492Z,0
2023-09-13T03:43:59.177Z,0
2023-09-13T03:45:13.963Z,0
2023-09-13T03:46:28.652Z,0
2023-09-13T03:47:43.315Z,0
2023-09-13T03:51:27.302Z,0
2023-09-13T03:52:42.005Z,0
2023-09-13T03:53:56.691Z,0
2023-09-13T03:55:11.348Z,0
2023-09-13T03:56:26.035Z,0
2023-09-13T03:57:40.709Z,0
2023-09-13T04:00:10.047Z,0
2023-09-13T04:01:24.713Z,0
2023-09-13T04:02:38.611Z,1
2023-09-13T04:05:07.907Z,1
2023-09-13T04:08:51.770Z,2
2023-09-13T04:10:06.407Z,2
2023-09-13T04:11:21.024Z,1
2023-09-13T04:15:04.871Z,1
2023-09-13T04:17:34.126Z,4
2023-09-13T04:18:48.736Z,7
2023-09-13T04:21:18.100Z,11
2023-09-13T04:22:32.715Z,11
2023-09-13T04:23:47.339Z,13
2023-09-13T04:25:01.953Z,17
2023-09-13T04:26:16.545Z,20
2023-09-13T04:27:31.183Z,24
2023-09-13T04:28:45.807Z,26
2023-09-13T04:31:15.052Z,41
2023-09-13T04:32:29.670Z,55
2023-09-13T04:33:44.296Z,62
2023-09-13T04:36:13.535Z,84
2023-09-13T04:37:27.422Z,96
2023-09-13T04:38:42.035Z,109
2023-09-13T04:39:56.661Z,123
2023-09-13T04:41:11.269Z,138
2023-09-13T04:43:40.518Z,164
2023-09-13T04:44:55.123Z,173
2023-09-13T04:46:09.740Z,188
2023-09-13T04:48:38.989Z,232
2023-09-13T04:49:53.611Z,251
2023-09-13T04:53:37.472Z,344
2023-09-13T04:54:52.202Z,375
2023-09-13T04:57:21.452Z,444
2023-09-13T04:58:36.063Z,484
2023-09-13T04:59:50.674Z,532
2023-09-13T05:01:05.308Z,578
2023-09-13T05:02:19.911Z,623
2023-09-13T05:03:34.529Z,651
2023-09-13T05:07:18.405Z,797
2023-09-13T05:11:02.249Z,905
2023-09-13T05:12:16.990Z,922
2023-09-13T05:14:46.224Z,992
2023-09-13T05:16:00.843Z,1012
2023-09-13T05:17:15.467Z,1086
2023-09-13T05:18:30.101Z,1085
2023-09-13T05:19:44.719Z,1101
2023-09-13T05:20:59.340Z,1120
2023-09-13T05:22:13.946Z,1147
2023-09-13T05:23:28.566Z,1193
2023-09-13T05:24:43.190Z,1246
2023-09-13T05:25:57.812Z,1281
2023-09-13T05:27:12.433Z,1325
2023-09-13T05:28:27.046Z,1404
2023-09-13T05:29:41.781Z,1503
2023-09-13T05:32:11.026Z,1604
2023-09-13T05:33:25.645Z,1629
2023-09-13T05:35:54.872Z,1614
2023-09-13T05:37:09.502Z,1676
2023-09-13T05:38:24.111Z,1688
2023-09-13T05:39:38.000Z,1726
2023-09-13T05:40:53.365Z,1809
2023-09-13T05:42:07.979Z,1959
2023-09-13T05:44:37.218Z,2451
2023-09-13T05:45:51.844Z,2529
2023-09-13T05:47:06.571Z,2769
2023-09-13T05:48:21.205Z,2826
2023-09-13T05:49:35.815Z,3644
2023-09-13T05:50:50.424Z,3443
2023-09-13T05:52:05.047Z,2415
2023-09-13T05:54:34.295Z,2368
2023-09-13T05:55:48.900Z,5652
2023-09-13T05:57:03.532Z,12425
2023-09-13T05:58:18.144Z,17589
2023-09-13T05:59:32.761Z,21061
2023-09-13T06:00:47.386Z,26437
2023-09-13T06:03:16.616Z,21219
2023-09-13T06:05:45.141Z,13169
2023-09-13T06:06:59.750Z,16344
2023-09-13T06:08:14.374Z,15030
2023-09-13T06:09:28.992Z,15850
2023-09-13T06:10:43.609Z,24165
2023-09-13T06:11:58.234Z,20121
2023-09-13T06:13:12.841Z,16244
2023-09-13T06:14:27.475Z,76593
2023-09-13T06:15:42.081Z,72504
2023-09-13T06:16:56.702Z,17064
2023-09-13T06:18:11.336Z,76521
2023-09-13T06:20:40.570Z,27342
2023-09-13T06:21:54.451Z,12710
2023-09-13T06:23:09.068Z,6232
2023-09-13T06:24:23.687Z,6696
2023-09-13T06:25:38.304Z,6073
2023-09-13T06:26:52.937Z,5976
2023-09-13T06:28:07.546Z,6302
2023-09-13T06:29:22.168Z,6435
2023-09-13T06:30:36.784Z,6050
2023-09-13T06:31:50.711Z,6458
2023-09-13T06:33:05.331Z,6608
2023-09-13T06:34:19.958Z,6721
2023-09-13T06:35:33.854Z,6519
2023-09-13T06:38:03.093Z,4110
2023-09-13T06:39:17.706Z,8629
2023-09-13T06:40:32.333Z,77978
2023-09-13T06:41:46.937Z,75903
2023-09-13T06:43:01.559Z,76210
2023-09-13T06:45:30.800Z,76340
2023-09-13T06:46:45.424Z,75029
2023-09-13T06:47:59.355Z,24585
2023-09-13T06:51:42.485Z,78373
2023-09-13T06:54:11.712Z,77323
2023-09-13T06:55:26.341Z,76744
2023-09-13T06:56:40.970Z,76393
2023-09-13T06:59:10.210Z,77284
2023-09-13T07:00:24.826Z,77431
2023-09-13T07:04:08.671Z,76602
2023-09-13T07:05:23.305Z,76038
2023-09-13T07:07:52.540Z,80065
2023-09-13T07:09:07.158Z,80178
2023-09-13T07:12:51.033Z,66034
2023-09-13T07:14:05.766Z,7243
2023-09-13T07:16:35.139Z,76884
2023-09-13T07:17:49.860Z,77961
2023-09-13T07:19:04.500Z,75883
2023-09-13T07:22:48.349Z,69000
2023-09-13T07:25:17.593Z,20064
2023-09-13T07:26:32.331Z,5215
2023-09-13T07:30:16.201Z,75751
2023-09-13T07:31:30.826Z,71046
2023-09-13T07:32:45.434Z,28829
2023-09-13T07:34:00.060Z,22418
2023-09-13T07:36:29.427Z,10807
2023-09-13T07:37:44.048Z,8524
2023-09-13T07:38:58.667Z,5944
2023-09-13T07:42:42.511Z,6080
2023-09-13T07:43:57.143Z,6932
2023-09-13T07:45:11.758Z,3916
2023-09-13T07:46:26.371Z,5307
2023-09-13T07:47:41.005Z,4409
2023-09-13T07:48:55.624Z,3936
2023-09-13T07:51:24.865Z,5389
2023-09-13T07:52:39.479Z,4188
2023-09-13T07:53:53.367Z,3718
2023-09-13T07:55:07.980Z,4766
2023-09-13T07:56:22.595Z,5967
2023-09-13T07:58:51.972Z,8296
2023-09-13T08:00:05.864Z,4787
2023-09-13T08:01:20.462Z,8031
2023-09-13T08:02:35.096Z,8184
2023-09-13T08:05:04.345Z,75813
2023-09-13T08:06:18.965Z,73583
2023-09-13T08:07:33.577Z,31476
2023-09-13T08:08:48.193Z,7177
2023-09-13T08:10:02.824Z,11022
2023-09-13T08:11:17.445Z,5117
2023-09-13T08:12:32.189Z,68154
2023-09-13T08:13:46.823Z,20597
2023-09-13T08:15:01.430Z,5796
2023-09-13T08:17:29.936Z,6443
2023-09-13T08:18:44.573Z,23816
2023-09-13T08:19:59.190Z,63963
2023-09-13T08:21:13.801Z,17759
2023-09-13T08:22:28.428Z,8305
2023-09-13T08:23:43.046Z,12025
2023-09-13T08:24:57.668Z,13531
2023-09-13T08:26:12.288Z,8326
2023-09-13T08:27:26.906Z,9842
2023-09-13T08:29:56.146Z,13247
2023-09-13T08:31:10.754Z,10114
2023-09-13T08:32:25.389Z,7733
2023-09-13T08:34:53.898Z,4237
2023-09-13T08:36:08.498Z,3874
2023-09-13T08:37:23.122Z,4506
2023-09-13T08:38:37.747Z,3583
2023-09-13T08:39:52.371Z,3509
2023-09-13T08:41:06.979Z,2647
2023-09-13T08:42:21.604Z,2581
2023-09-13T08:43:36.227Z,2077
2023-09-13T08:44:50.854Z,3080
2023-09-13T08:48:34.696Z,3058
2023-09-13T08:49:49.331Z,5897
2023-09-13T08:52:17.869Z,4843
2023-09-13T08:53:32.490Z,3909
2023-09-13T08:56:01.735Z,2809
2023-09-13T08:57:16.353Z,3418
2023-09-13T08:58:30.287Z,1578
2023-09-13T08:59:44.893Z,3240
2023-09-13T09:00:59.508Z,5335
2023-09-13T09:02:14.126Z,3671
2023-09-13T09:03:28.875Z,1503
2023-09-13T09:04:43.501Z,3147
2023-09-13T09:05:58.110Z,4758
2023-09-13T09:07:12.730Z,3495
2023-09-13T09:09:41.982Z,7122
2023-09-13T09:10:56.597Z,6836
2023-09-13T09:13:25.828Z,5336
2023-09-13T09:14:40.439Z,2747
2023-09-13T09:15:55.061Z,4140
2023-09-13T09:17:09.697Z,6109
2023-09-13T09:18:24.311Z,7614
2023-09-13T09:19:38.921Z,8233
2023-09-13T09:20:53.546Z,7015
2023-09-13T09:23:22.915Z,4248
2023-09-13T09:24:37.519Z,4164
2023-09-13T09:27:06.771Z,9199
2023-09-13T09:28:21.377Z,8105
2023-09-13T09:32:05.243Z,10455
2023-09-13T09:34:33.376Z,4985
2023-09-13T09:35:46.903Z,3561
2023-09-13T09:37:01.319Z,4645
2023-09-13T09:40:44.553Z,2733
2023-09-13T09:44:27.811Z,5266
2023-09-13T09:46:56.641Z,5191
2023-09-13T09:48:11.048Z,4123
2023-09-13T09:49:25.451Z,4603
2023-09-13T09:50:39.864Z,3343
2023-09-13T09:51:54.284Z,2727
2023-09-13T09:53:08.815Z,2413
2023-09-13T09:55:37.643Z,2529
2023-09-13T09:58:06.467Z,3833
2023-09-13T09:59:20.890Z,3878
2023-09-13T10:00:35.310Z,3770
2023-09-13T10:01:49.713Z,3441
2023-09-13T10:03:04.136Z,3722
2023-09-13T10:05:32.962Z,5209
2023-09-13T10:06:47.368Z,7018
2023-09-13T10:09:16.194Z,4972
2023-09-13T10:10:29.737Z,3583
2023-09-13T10:11:44.153Z,2877
2023-09-13T10:12:58.557Z,2764
2023-09-13T10:15:27.392Z,4046
2023-09-13T10:16:41.794Z,5048
2023-09-13T10:17:56.206Z,3814
2023-09-13T10:21:39.453Z,972
2023-09-13T10:22:53.867Z,2907
2023-09-13T10:25:22.693Z,3376
2023-09-13T10:27:51.516Z,2762
2023-09-13T10:29:05.044Z,2921
2023-09-13T10:30:19.469Z,3251
2023-09-13T10:31:33.879Z,3647
2023-09-13T10:34:02.706Z,3886
2023-09-13T10:35:17.112Z,4302
2023-09-13T10:36:31.541Z,5005
2023-09-13T10:40:14.774Z,4378
2023-09-13T10:41:29.188Z,4017
2023-09-13T10:42:43.600Z,3725
2023-09-13T10:43:58.021Z,3519
2023-09-13T10:45:12.427Z,3416
2023-09-13T10:46:26.974Z,3354
2023-09-13T10:50:10.201Z,3249
2023-09-13T10:53:53.455Z,4985
2023-09-13T10:55:07.860Z,5273
2023-09-13T10:56:22.283Z,5181
2023-09-13T10:58:51.105Z,5493
2023-09-13T11:00:05.513Z,4308
2023-09-13T11:01:19.926Z,4848
2023-09-13T11:02:34.459Z,5839
2023-09-13T11:03:48.879Z,5340
2023-09-13T11:05:03.291Z,4258
2023-09-13T11:06:17.700Z,4872
2023-09-13T11:11:15.357Z,5621
2023-09-13T11:16:13.016Z,5842
2023-09-13T11:17:27.426Z,5497
2023-09-13T11:18:41.826Z,4909
2023-09-13T11:19:56.257Z,5698
2023-09-13T11:21:10.663Z,5372
2023-09-13T11:22:25.209Z,4967
2023-09-13T11:23:39.621Z,4729
2023-09-13T11:24:54.017Z,4556
2023-09-13T11:28:37.274Z,5208
2023-09-13T11:29:51.682Z,6371
2023-09-13T11:31:06.094Z,6152
2023-09-13T11:32:20.499Z,5887
2023-09-13T11:33:34.920Z,5271
2023-09-13T11:34:49.335Z,5311
2023-09-13T11:36:03.744Z,5085
2023-09-13T11:37:18.169Z,5229
2023-09-13T11:38:32.581Z,5027
2023-09-13T11:39:46.978Z,5003
2023-09-13T11:41:01.408Z,5131
2023-09-13T11:42:14.939Z,6028
2023-09-13T11:44:43.769Z,6248
2023-09-13T11:45:58.179Z,6686
2023-09-13T11:47:12.598Z,6730
2023-09-13T11:48:27.002Z,5890
2023-09-13T11:50:55.821Z,5628
2023-09-13T11:52:10.252Z,5498
2023-09-13T11:53:24.650Z,6377
2023-09-13T11:54:39.063Z,5959
2023-09-13T11:55:53.478Z,6543
2023-09-13T11:57:07.892Z,5421
2023-09-13T11:58:22.318Z,4178
2023-09-13T12:00:51.145Z,3264
2023-09-13T12:05:47.908Z,3265
2023-09-13T12:10:45.561Z,6266
2023-09-13T12:11:59.972Z,5838
2023-09-13T12:13:14.401Z,4563
2023-09-13T12:14:28.809Z,3368
2023-09-13T12:15:43.347Z,3509
2023-09-13T12:18:12.162Z,3952
2023-09-13T12:19:26.593Z,3868
2023-09-13T12:20:41.000Z,3752
2023-09-13T12:21:55.420Z,3337
2023-09-13T12:23:09.831Z,2840
2023-09-13T12:24:24.231Z,2441
2023-09-13T12:25:38.644Z,1801
2023-09-13T12:26:53.059Z,1632
2023-09-13T12:29:21.899Z,1105
2023-09-13T12:31:50.711Z,464
2023-09-13T12:33:05.250Z,411
2023-09-13T12:34:19.675Z,481
2023-09-13T12:35:34.078Z,474
2023-09-13T12:38:02.918Z,413
2023-09-13T12:39:17.322Z,266
2023-09-13T12:40:31.745Z,423
2023-09-13T12:43:00.565Z,1000
2023-09-13T12:44:14.985Z,1623
2023-09-13T12:45:29.391Z,2263
2023-09-13T12:47:58.216Z,3390
2023-09-13T12:49:12.636Z,3257
2023-09-13T12:50:27.164Z,3256
2023-09-13T12:51:41.570Z,3320
2023-09-13T12:54:10.412Z,1760
2023-09-13T12:55:24.815Z,1371
2023-09-13T12:56:39.231Z,1718
2023-09-13T12:57:53.639Z,1750
2023-09-13T12:59:08.066Z,1999
2023-09-13T13:02:51.294Z,2021
2023-09-13T13:04:05.708Z,1931
2023-09-13T13:05:20.129Z,1914
2023-09-13T13:06:33.656Z,2055
2023-09-13T13:07:48.077Z,2222
2023-09-13T13:09:02.481Z,2220
2023-09-13T13:10:16.895Z,2331
2023-09-13T13:12:45.727Z,2442
2023-09-13T13:14:00.146Z,2533
2023-09-13T13:15:14.553Z,2776
2023-09-13T13:16:28.972Z,2734
2023-09-13T13:20:12.213Z,2481
2023-09-13T13:22:41.025Z,3065
2023-09-13T13:23:55.451Z,3115
2023-09-13T13:25:08.981Z,3074
2023-09-13T13:27:37.797Z,3029
2023-09-13T13:28:52.213Z,3097
2023-09-13T13:30:06.632Z,3414
2023-09-13T13:31:21.040Z,3776
2023-09-13T13:32:35.469Z,4000
2023-09-13T13:33:49.867Z,4161
2023-09-13T13:35:04.277Z,4300
2023-09-13T13:36:18.691Z,4732
2023-09-13T13:37:33.112Z,4955
2023-09-13T13:38:47.520Z,4832
2023-09-13T13:40:01.932Z,4633
2023-09-13T13:41:16.476Z,4489
2023-09-13T13:43:45.309Z,3939
2023-09-13T13:44:59.716Z,3682
2023-09-13T13:47:28.542Z,3548
2023-09-13T13:48:42.953Z,3441
2023-09-13T13:49:57.371Z,3189
2023-09-13T13:51:11.785Z,2983
2023-09-13T13:52:26.192Z,2867
2023-09-13T13:53:40.602Z,2703
2023-09-13T13:54:55.022Z,2594
2023-09-13T13:56:09.434Z,2484
2023-09-13T13:57:23.976Z,2506
2023-09-13T13:58:38.389Z,2498
2023-09-13T13:59:52.788Z,2707
2023-09-13T14:03:36.045Z,3681
2023-09-13T14:04:50.456Z,3580
2023-09-13T14:06:04.874Z,3944
2023-09-13T14:08:33.690Z,4475
2023-09-13T14:09:48.104Z,4657
2023-09-13T14:12:16.941Z,4691
2023-09-13T14:13:31.349Z,4585
2023-09-13T14:14:45.888Z,4411
2023-09-13T14:17:14.709Z,3972
2023-09-13T14:18:29.122Z,3752
2023-09-13T14:19:43.656Z,3555
2023-09-13T14:20:58.064Z,3402
2023-09-13T14:23:26.895Z,3120
2023-09-13T14:24:41.303Z,2990
2023-09-13T14:25:55.716Z,2882
2023-09-13T14:27:10.126Z,2798
2023-09-13T14:28:24.541Z,2728
2023-09-13T14:33:22.193Z,2493
2023-09-13T14:34:36.609Z,2463
2023-09-13T14:35:50.139Z,2395
2023-09-13T14:38:18.977Z,2336
2023-09-13T14:39:33.396Z,2337
2023-09-13T14:42:02.224Z,2321
2023-09-13T14:43:16.625Z,2380
2023-09-13T14:44:31.041Z,2288
2023-09-13T14:49:28.703Z,2077
2023-09-13T14:50:43.115Z,1920
2023-09-13T14:51:57.521Z,3291
2023-09-13T14:53:11.932Z,3088
2023-09-13T14:54:26.338Z,2649
2023-09-13T14:55:40.756Z,2595
2023-09-13T14:58:09.591Z,2352
2023-09-13T14:59:24.122Z,2229
2023-09-13T15:03:07.370Z,2479
2023-09-13T15:04:21.779Z,2469
2023-09-13T15:06:50.608Z,2316
2023-09-13T15:08:05.007Z,2191
2023-09-13T15:09:19.440Z,2146
2023-09-13T15:10:33.835Z,2121
2023-09-13T15:13:02.680Z,2068
2023-09-13T15:14:17.080Z,2168
2023-09-13T15:15:30.612Z,2182
2023-09-13T15:16:45.036Z,2442
2023-09-13T15:17:59.438Z,2373
2023-09-13T15:19:13.859Z,2294
2023-09-13T15:20:28.279Z,2228
2023-09-13T15:21:42.694Z,2132
2023-09-13T15:22:57.091Z,2094
2023-09-13T15:24:11.518Z,2153
2023-09-13T15:26:40.340Z,2334
2023-09-13T15:27:54.746Z,2403
2023-09-13T15:29:09.172Z,2512
2023-09-13T15:30:23.569Z,2506
2023-09-13T15:31:37.985Z,2437
2023-09-13T15:32:52.413Z,2311
2023-09-13T15:34:05.949Z,2360
2023-09-13T15:37:49.174Z,2198
2023-09-13T15:39:03.590Z,2240
2023-09-13T15:42:46.833Z,1814
2023-09-13T15:44:01.236Z,1845
2023-09-13T15:47:44.493Z,1849
2023-09-13T15:48:58.895Z,1862
2023-09-13T15:50:13.304Z,1895
2023-09-13T15:51:27.716Z,1888
2023-09-13T15:52:42.143Z,1973
2023-09-13T15:53:56.683Z,1945
2023-09-13T15:56:25.498Z,1840
2023-09-13T15:57:39.914Z,1776
2023-09-13T15:58:54.329Z,1733
2023-09-13T16:00:08.736Z,1675
2023-09-13T16:02:37.557Z,1575
2023-09-13T16:03:51.983Z,1510
2023-09-13T16:05:06.395Z,1459
2023-09-13T16:06:20.801Z,1430
2023-09-13T16:07:35.227Z,1393
2023-09-13T16:08:49.640Z,1353
2023-09-13T16:12:32.004Z,1262
2023-09-13T16:13:46.405Z,1225
2023-09-13T16:17:29.658Z,1122
2023-09-13T16:19:58.472Z,1067
2023-09-13T16:21:12.892Z,1041
2023-09-13T16:22:27.310Z,1024
2023-09-13T16:23:41.722Z,1007
2023-09-13T16:27:24.083Z,967
2023-09-13T16:28:37.607Z,955
2023-09-13T16:29:52.034Z,958
2023-09-13T16:32:20.851Z,998
2023-09-13T16:33:35.272Z,1000
2023-09-13T16:37:18.496Z,952
2023-09-13T16:38:32.928Z,907
2023-09-13T16:41:01.752Z,880
2023-09-13T16:42:16.152Z,835
2023-09-13T16:43:30.584Z,811
2023-09-13T16:45:59.511Z,783
2023-09-13T16:47:13.943Z,766
2023-09-13T16:48:28.341Z,748
2023-09-13T16:49:42.768Z,719
2023-09-13T16:52:11.583Z,632
2023-09-13T16:53:26.009Z,615
2023-09-13T16:54:40.424Z,602
2023-09-13T16:55:54.837Z,587
2023-09-13T16:57:09.248Z,563
2023-09-13T16:58:23.646Z,513
2023-09-13T16:59:38.077Z,456
2023-09-13T17:00:52.478Z,403
2023-09-13T17:02:06.902Z,366
2023-09-13T17:03:20.424Z,321
2023-09-13T17:04:34.847Z,269
2023-09-13T17:05:49.255Z,215
2023-09-13T17:07:03.659Z,163
2023-09-13T17:09:32.494Z,81
2023-09-13T17:10:46.905Z,56
2023-09-13T17:12:01.330Z,41
2023-09-13T17:13:15.739Z,27
2023-09-13T17:15:44.557Z,4
2023-09-13T17:16:58.968Z,5
2023-09-13T17:18:13.396Z,12
2023-09-13T17:19:27.807Z,16
2023-09-13T17:21:56.754Z,22
2023-09-13T17:23:11.169Z,20
2023-09-13T17:25:39.989Z,19
2023-09-13T17:26:54.401Z,17
2023-09-13T17:29:23.228Z,10
2023-09-13T17:30:37.579Z,11
2023-09-13T17:31:51.998Z,7
2023-09-13T17:33:06.411Z,7
2023-09-13T17:34:20.822Z,5
2023-09-13T17:35:35.236Z,3
2023-09-13T17:36:49.648Z,3
2023-09-13T17:38:03.179Z,3
2023-09-13T17:40:32.010Z,2
2023-09-13T17:41:46.419Z,2
2023-09-13T17:43:00.830Z,1
2023-09-13T17:45:29.662Z,1
2023-09-13T17:46:44.085Z,2
2023-09-13T17:47:58.492Z,5
2023-09-13T17:50:27.317Z,2
2023-09-13T17:51:41.736Z,1
2023-09-13T17:52:56.138Z,1
2023-09-13T17:56:39.610Z,1
2023-09-13T17:57:54.021Z,1
2023-09-13T18:00:22.842Z,1
2023-09-13T18:02:51.798Z,0
2023-09-13T18:06:35.193Z,0
2023-09-13T18:07:49.662Z,0
2023-09-13T18:10:18.583Z,0
2023-09-13T18:15:16.461Z,0
2023-09-13T18:17:45.400Z,0
2023-09-13T18:21:28.796Z,0
2023-09-13T18:22:43.254Z,0
2023-09-13T18:23:57.850Z,0
2023-09-13T18:25:12.320Z,0
2023-09-13T18:27:41.252Z,0
2023-09-13T18:28:55.718Z,0
2023-09-13T18:35:08.063Z,0
2023-09-13T18:36:22.517Z,0
2023-09-13T18:37:37.001Z,0
2023-09-13T18:40:05.929Z,0
2023-09-13T18:41:20.398Z,0
2023-09-13T18:42:34.855Z,0
2023-09-13T18:45:02.914Z,0
2023-09-13T18:46:17.387Z,0
2023-09-13T18:47:31.856Z,0
2023-09-13T18:52:29.719Z,0
2023-09-13T18:54:58.667Z,0
2023-09-13T18:56:13.120Z,0
2023-09-13T18:57:27.591Z,0
2023-09-13T18:59:56.524Z,0
2023-09-13T19:01:10.986Z,0
2023-09-13T19:02:25.460Z,0
2023-09-13T19:06:08.981Z,0
2023-09-13T19:07:23.458Z,0
2023-09-13T19:09:52.394Z,0
2023-09-13T19:11:06.847Z,0
2023-09-13T19:12:21.320Z,0
2023-09-13T19:14:50.254Z,0
2023-09-13T19:16:04.736Z,0
2023-09-13T19:17:19.195Z,0
2023-09-13T19:19:48.135Z,0
2023-09-13T19:22:17.057Z,0
2023-09-13T19:24:46.007Z,0
2023-09-13T19:26:00.462Z,0
2023-09-13T19:27:14.059Z,0
2023-09-13T19:28:28.517Z,0
2023-09-13T19:29:42.998Z,0
2023-09-13T19:30:57.451Z,0
2023-09-13T19:32:11.922Z,0
2023-09-13T19:33:26.386Z,0
2023-09-13T19:35:55.325Z,0
2023-09-13T19:37:09.796Z,0
2023-09-13T19:38:24.268Z,0
2023-09-13T19:39:38.727Z,0
2023-09-13T19:44:36.592Z,0
2023-09-13T19:45:51.059Z,0
2023-09-13T19:47:04.656Z,0
2023-09-13T19:48:19.122Z,0
2023-09-13T19:49:33.586Z,0
2023-09-13T19:50:48.054Z,0
2023-09-13T19:52:02.530Z,0
2023-09-13T19:54:31.449Z,0
2023-09-13T19:57:00.400Z,0
2023-09-13T19:59:29.316Z,0
2023-09-13T20:00:43.783Z,0
2023-09-13T20:01:58.263Z,0
2023-09-13T20:03:12.729Z,0
2023-09-13T20:04:26.313Z,0
2023-09-13T20:05:40.788Z,0
2023-09-13T20:06:55.246Z,0
2023-09-13T20:08:09.723Z,0
2023-09-13T20:09:24.180Z,0
2023-09-13T20:10:38.647Z,0
2023-09-13T20:11:53.117Z,0
2023-09-13T20:15:36.518Z,0
2023-09-13T20:16:50.984Z,0
2023-09-13T20:19:19.927Z,0
2023-09-13T20:20:34.392Z,0
2023-09-13T20:24:16.919Z,0
2023-09-13T20:25:31.374Z,0
2023-09-13T20:26:45.851Z,0
2023-09-13T20:29:14.773Z,0
2023-09-13T20:30:29.258Z,0
2023-09-13T20:31:43.711Z,0
2023-09-13T20:32:58.203Z,0
2023-09-13T20:34:12.645Z,0
2023-09-13T20:35:27.125Z,0
2023-09-13T20:36:41.594Z,0
2023-09-13T20:40:24.977Z,0
2023-09-13T20:42:53.930Z,0
2023-09-13T20:44:08.393Z,0
2023-09-13T20:45:22.858Z,0
2023-09-13T20:46:37.312Z,0
2023-09-13T20:49:06.263Z,0
2023-09-13T20:50:20.727Z,0
2023-09-13T20:51:35.186Z,0
2023-09-13T20:52:49.662Z,0
2023-09-13T20:56:32.183Z,0
2023-09-13T20:57:46.647Z,0
2023-09-13T20:59:00.227Z,0
2023-09-13T21:00:14.695Z,0
2023-09-13T21:01:29.169Z,0
2023-09-13T21:03:58.106Z,0
2023-09-13T21:06:27.041Z,0
2023-09-13T21:07:41.504Z,0
2023-09-13T21:08:55.979Z,0
2023-09-13T21:10:10.439Z,0
2023-09-13T21:13:53.851Z,0
2023-09-13T21:15:08.311Z,0
2023-09-13T21:16:21.902Z,0
2023-09-13T21:18:50.822Z,0
2023-09-13T21:20:05.290Z,0
2023-09-13T21:21:19.777Z,0
2023-09-13T21:23:48.697Z,0
2023-09-13T21:25:03.175Z,0
2023-09-13T21:26:17.636Z,0
2023-09-13T21:28:46.562Z,0
2023-09-13T21:30:01.038Z,0
2023-09-13T21:31:15.504Z,0
2023-09-13T21:33:44.431Z,0
2023-09-13T21:34:58.896Z,0
2023-09-13T21:36:12.499Z,0
2023-09-13T21:38:41.416Z,0
2023-09-13T21:39:55.894Z,0
2023-09-13T21:41:10.359Z,0
2023-09-13T21:42:24.839Z,0
2023-09-13T21:43:39.294Z,0
2023-09-13T21:44:53.755Z,0
2023-09-13T21:46:08.235Z,0
2023-09-13T21:48:37.172Z,0
2023-09-13T21:54:49.508Z,0
2023-09-13T21:56:03.967Z,0
2023-09-13T21:57:18.425Z,0
2023-09-13T21:58:32.894Z,0
2023-09-13T21:59:47.373Z,0
2023-09-13T22:01:01.845Z,0
2023-09-13T22:03:30.782Z,0
2023-09-13T22:04:45.245Z,0
2023-09-13T22:05:59.698Z,0
2023-09-13T22:07:14.292Z,0
2023-09-13T22:08:28.755Z,0
2023-09-13T22:09:43.238Z,0
2023-09-13T22:10:57.693Z,0
2023-09-13T22:12:12.165Z,0
2023-09-13T22:13:26.639Z,0
2023-09-13T22:14:41.088Z,0
2023-09-13T22:15:55.575Z,0
2023-09-13T22:18:24.491Z,0
2023-09-13T22:20:53.445Z,0
2023-09-13T22:22:07.902Z,0
2023-09-13T22:24:35.955Z,0
2023-09-13T22:25:50.420Z,0
2023-09-13T22:28:19.362Z,0
2023-09-13T22:29:33.827Z,0
2023-09-13T22:30:48.294Z,0
2023-09-13T22:33:17.223Z,0
2023-09-13T22:34:31.698Z,0
2023-09-13T22:35:46.152Z,0
2023-09-13T22:37:00.633Z,0
2023-09-13T22:38:15.095Z,0
2023-09-13T22:39:29.559Z,0
2023-09-13T22:40:44.025Z,0
2023-09-13T22:41:58.492Z,0
2023-09-13T22:43:12.091Z,0
2023-09-13T22:44:26.563Z,0
2023-09-13T22:45:41.021Z,0
2023-09-13T22:48:09.959Z,0
2023-09-13T22:49:24.432Z,0
2023-09-13T22:50:38.881Z,0
2023-09-13T22:53:07.814Z,0
2023-09-13T22:54:22.293Z,0
2023-09-13T22:55:36.764Z,0
2023-09-13T22:58:05.697Z,0
2023-09-13T22:59:20.152Z,0
2023-09-13T23:01:48.210Z,0
2023-09-13T23:03:02.685Z,0
2023-09-13T23:04:17.157Z,0
2023-09-13T23:05:31.624Z,0
2023-09-13T23:08:00.546Z,0
2023-09-13T23:09:15.019Z,0
2023-09-13T23:10:29.481Z,0
2023-09-13T23:11:43.966Z,0
2023-09-13T23:12:58.419Z,0
2023-09-13T23:14:12.890Z,0
2023-09-13T23:17:56.283Z,0
2023-09-13T23:19:10.757Z,0
2023-09-13T23:20:25.214Z,0